sensor_id;sensor_type;location;lat;lon;timestamp;pressure;altitude;pressure_sealevel;temperature;humidity
49827;BME280;35715;51.570;6.036;2023-06-04T00:00:47;101996.41;;;15.54;48.51
49827;BME280;35715;51.570;6.036;2023-06-04T00:03:31;101999.09;;;15.42;48.65
49827;BME280;35715;51.570;6.036;2023-06-04T00:05:57;101995.19;;;15.36;49.34
49827;BME280;35715;51.570;6.036;2023-06-04T00:08:23;101991.97;;;15.26;49.80
49827;BME280;35715;51.570;6.036;2023-06-04T00:10:48;101996.66;;;15.19;49.63
49827;BME280;35715;51.570;6.036;2023-06-04T00:13:13;101990.13;;;15.12;49.83
49827;BME280;35715;51.570;6.036;2023-06-04T00:15:39;101997.72;;;15.09;49.76
49827;BME280;35715;51.570;6.036;2023-06-04T00:18:05;101993.81;;;15.02;50.27
49827;BME280;35715;51.570;6.036;2023-06-04T00:20:30;101998.81;;;14.99;50.55
49827;BME280;35715;51.570;6.036;2023-06-04T00:23:08;101990.81;;;14.96;51.33
49827;BME280;35715;51.570;6.036;2023-06-04T00:25:33;101993.88;;;14.90;51.81
49827;BME280;35715;51.570;6.036;2023-06-04T00:27:58;101983.50;;;14.90;51.76
49827;BME280;35715;51.570;6.036;2023-06-04T00:30:24;101987.47;;;14.85;52.32
49827;BME280;35715;51.570;6.036;2023-06-04T00:32:49;101989.75;;;14.81;52.57
49827;BME280;35715;51.570;6.036;2023-06-04T00:35:33;101980.72;;;14.76;52.84
49827;BME280;35715;51.570;6.036;2023-06-04T00:37:59;101986.84;;;14.76;53.27
49827;BME280;35715;51.570;6.036;2023-06-04T00:40:24;101988.09;;;14.69;53.31
49827;BME280;35715;51.570;6.036;2023-06-04T00:42:54;101984.31;;;14.64;53.79
49827;BME280;35715;51.570;6.036;2023-06-04T00:45:20;101982.25;;;14.60;54.17
49827;BME280;35715;51.570;6.036;2023-06-04T00:47:46;101985.63;;;14.59;54.69
49827;BME280;35715;51.570;6.036;2023-06-04T00:50:11;101989.16;;;14.60;55.33
49827;BME280;35715;51.570;6.036;2023-06-04T00:52:39;101978.75;;;14.60;55.21
49827;BME280;35715;51.570;6.036;2023-06-04T00:55:05;101985.50;;;14.58;55.42
49827;BME280;35715;51.570;6.036;2023-06-04T00:57:30;101983.75;;;14.57;55.64
49827;BME280;35715;51.570;6.036;2023-06-04T01:00:15;101986.44;;;14.58;56.51
49827;BME280;35715;51.570;6.036;2023-06-04T01:02:43;101987.56;;;14.62;55.76
49827;BME280;35715;51.570;6.036;2023-06-04T01:05:29;101986.22;;;14.55;56.29
49827;BME280;35715;51.570;6.036;2023-06-04T01:07:57;101991.31;;;14.53;55.57
49827;BME280;35715;51.570;6.036;2023-06-04T01:10:23;101992.78;;;14.50;55.90
49827;BME280;35715;51.570;6.036;2023-06-04T01:12:48;101987.38;;;14.47;56.16
49827;BME280;35715;51.570;6.036;2023-06-04T01:15:14;101987.47;;;14.48;55.89
49827;BME280;35715;51.570;6.036;2023-06-04T01:21:02;101991.25;;;14.40;56.90
49827;BME280;35715;51.570;6.036;2023-06-04T01:23:46;101991.13;;;14.38;56.90
49827;BME280;35715;51.570;6.036;2023-06-04T01:26:12;101995.28;;;14.36;56.98
49827;BME280;35715;51.570;6.036;2023-06-04T01:28:37;101990.00;;;14.35;57.18
49827;BME280;35715;51.570;6.036;2023-06-04T01:31:04;101984.69;;;14.33;57.58
49827;BME280;35715;51.570;6.036;2023-06-04T01:33:43;101983.03;;;14.34;57.41
49827;BME280;35715;51.570;6.036;2023-06-04T01:36:08;101990.00;;;14.35;57.25
49827;BME280;35715;51.570;6.036;2023-06-04T01:38:35;101988.44;;;14.37;57.67
49827;BME280;35715;51.570;6.036;2023-06-04T01:41:01;101991.69;;;14.34;57.68
49827;BME280;35715;51.570;6.036;2023-06-04T01:43:27;101990.09;;;14.36;58.50
49827;BME280;35715;51.570;6.036;2023-06-04T01:45:53;101987.41;;;14.35;58.36
49827;BME280;35715;51.570;6.036;2023-06-04T01:48:21;101991.69;;;14.34;58.57
49827;BME280;35715;51.570;6.036;2023-06-04T01:50:47;101981.09;;;14.31;58.70
49827;BME280;35715;51.570;6.036;2023-06-04T01:53:48;101985.19;;;14.28;58.82
49827;BME280;35715;51.570;6.036;2023-06-04T01:56:14;101988.44;;;14.25;57.62
49827;BME280;35715;51.570;6.036;2023-06-04T01:58:39;101982.94;;;14.20;57.98
49827;BME280;35715;51.570;6.036;2023-06-04T02:01:05;101988.91;;;14.19;58.23
49827;BME280;35715;51.570;6.036;2023-06-04T02:03:50;101987.91;;;14.17;58.04
49827;BME280;35715;51.570;6.036;2023-06-04T02:06:16;101995.25;;;14.11;57.74
49827;BME280;35715;51.570;6.036;2023-06-04T02:08:41;101996.94;;;14.11;58.17
49827;BME280;35715;51.570;6.036;2023-06-04T02:11:07;101993.22;;;14.07;58.09
49827;BME280;35715;51.570;6.036;2023-06-04T02:13:42;101992.00;;;14.02;58.45
49827;BME280;35715;51.570;6.036;2023-06-04T02:16:07;101996.06;;;13.98;58.62
49827;BME280;35715;51.570;6.036;2023-06-04T02:18:51;101989.97;;;13.98;58.61
49827;BME280;35715;51.570;6.036;2023-06-04T02:21:16;101989.88;;;13.96;58.17
49827;BME280;35715;51.570;6.036;2023-06-04T02:23:41;101988.63;;;13.91;58.75
49827;BME280;35715;51.570;6.036;2023-06-04T02:26:07;101988.38;;;13.88;58.02
49827;BME280;35715;51.570;6.036;2023-06-04T02:28:32;101993.94;;;13.81;57.94
49827;BME280;35715;51.570;6.036;2023-06-04T02:30:57;101987.72;;;13.79;58.26
49827;BME280;35715;51.570;6.036;2023-06-04T02:33:23;101992.91;;;13.79;58.20
49827;BME280;35715;51.570;6.036;2023-06-04T02:36:07;101985.50;;;13.72;58.23
49827;BME280;35715;51.570;6.036;2023-06-04T02:38:34;101994.84;;;13.70;58.56
49827;BME280;35715;51.570;6.036;2023-06-04T02:40:59;101999.69;;;13.65;59.02
49827;BME280;35715;51.570;6.036;2023-06-04T02:43:25;101991.69;;;13.62;59.05
49827;BME280;35715;51.570;6.036;2023-06-04T02:45:50;101985.38;;;13.58;59.10
49827;BME280;35715;51.570;6.036;2023-06-04T02:48:15;101983.13;;;13.51;58.80
49827;BME280;35715;51.570;6.036;2023-06-04T02:50:41;101991.91;;;13.53;58.90
49827;BME280;35715;51.570;6.036;2023-06-04T02:53:22;101989.88;;;13.49;58.75
49827;BME280;35715;51.570;6.036;2023-06-04T02:55:49;101988.19;;;13.49;59.06
49827;BME280;35715;51.570;6.036;2023-06-04T02:58:16;101988.06;;;13.48;59.59
49827;BME280;35715;51.570;6.036;2023-06-04T03:00:41;101984.47;;;13.46;59.30
49827;BME280;35715;51.570;6.036;2023-06-04T03:03:11;101992.00;;;13.43;58.92
49827;BME280;35715;51.570;6.036;2023-06-04T03:05:36;101989.06;;;13.38;58.69
49827;BME280;35715;51.570;6.036;2023-06-04T03:08:04;101994.81;;;13.34;59.23
49827;BME280;35715;51.570;6.036;2023-06-04T03:10:30;101989.94;;;13.27;59.06
49827;BME280;35715;51.570;6.036;2023-06-04T03:13:04;102003.00;;;13.28;59.29
49827;BME280;35715;51.570;6.036;2023-06-04T03:15:29;101996.22;;;13.30;60.01
49827;BME280;35715;51.570;6.036;2023-06-04T03:17:55;102002.34;;;13.31;60.29
49827;BME280;35715;51.570;6.036;2023-06-04T03:20:20;101999.88;;;13.32;60.63
49827;BME280;35715;51.570;6.036;2023-06-04T03:22:51;101993.63;;;13.30;60.83
49827;BME280;35715;51.570;6.036;2023-06-04T03:25:16;102000.53;;;13.30;60.62
49827;BME280;35715;51.570;6.036;2023-06-04T03:27:41;101988.22;;;13.27;59.93
49827;BME280;35715;51.570;6.036;2023-06-04T03:32:57;101987.34;;;13.27;59.94
49827;BME280;35715;51.570;6.036;2023-06-04T03:35:22;101994.88;;;13.24;60.25
49827;BME280;35715;51.570;6.036;2023-06-04T03:38:06;102000.72;;;13.21;61.02
49827;BME280;35715;51.570;6.036;2023-06-04T03:40:32;101993.88;;;13.22;61.11
49827;BME280;35715;51.570;6.036;2023-06-04T03:43:18;102002.09;;;13.16;61.07
49827;BME280;35715;51.570;6.036;2023-06-04T03:45:43;102003.91;;;13.17;61.31
49827;BME280;35715;51.570;6.036;2023-06-04T03:48:09;101997.69;;;13.15;61.09
49827;BME280;35715;51.570;6.036;2023-06-04T03:50:34;102002.84;;;13.15;60.97
49827;BME280;35715;51.570;6.036;2023-06-04T03:55:46;101998.34;;;13.12;60.54
49827;BME280;35715;51.570;6.036;2023-06-04T03:58:11;102005.34;;;13.13;60.65
49827;BME280;35715;51.570;6.036;2023-06-04T04:00:38;101996.66;;;13.13;60.27
49827;BME280;35715;51.570;6.036;2023-06-04T04:03:09;102005.56;;;13.17;60.92
49827;BME280;35715;51.570;6.036;2023-06-04T04:05:35;101997.78;;;13.17;60.46
49827;BME280;35715;51.570;6.036;2023-06-04T04:08:00;101987.66;;;13.20;60.22
49827;BME280;35715;51.570;6.036;2023-06-04T04:10:26;101994.78;;;13.22;59.84
49827;BME280;35715;51.570;6.036;2023-06-04T04:15:35;102006.03;;;13.23;59.96
49827;BME280;35715;51.570;6.036;2023-06-04T04:18:00;102008.50;;;13.21;59.33
49827;BME280;35715;51.570;6.036;2023-06-04T04:20:26;102002.31;;;13.19;59.32
49827;BME280;35715;51.570;6.036;2023-06-04T04:22:54;102009.19;;;13.19;59.86
49827;BME280;35715;51.570;6.036;2023-06-04T04:25:20;102002.97;;;13.17;59.42
49827;BME280;35715;51.570;6.036;2023-06-04T04:27:45;102015.03;;;13.16;59.83
49827;BME280;35715;51.570;6.036;2023-06-04T04:30:13;102015.16;;;13.18;60.95
49827;BME280;35715;51.570;6.036;2023-06-04T04:32:41;102007.16;;;13.14;59.88
49827;BME280;35715;51.570;6.036;2023-06-04T04:35:13;102010.88;;;13.18;60.20
49827;BME280;35715;51.570;6.036;2023-06-04T04:37:39;102014.72;;;13.23;60.38
49827;BME280;35715;51.570;6.036;2023-06-04T04:40:24;102011.31;;;13.24;60.09
49827;BME280;35715;51.570;6.036;2023-06-04T04:43:01;102007.72;;;13.22;60.22
49827;BME280;35715;51.570;6.036;2023-06-04T04:45:26;102012.13;;;13.23;60.31
49827;BME280;35715;51.570;6.036;2023-06-04T04:47:51;102017.31;;;13.23;60.10
49827;BME280;35715;51.570;6.036;2023-06-04T04:50:17;102017.75;;;13.18;60.00
49827;BME280;35715;51.570;6.036;2023-06-04T04:53:17;102009.31;;;13.20;61.02
49827;BME280;35715;51.570;6.036;2023-06-04T04:58:27;102015.28;;;13.19;60.87
49827;BME280;35715;51.570;6.036;2023-06-04T05:00:52;102009.31;;;13.20;61.29
49827;BME280;35715;51.570;6.036;2023-06-04T05:03:22;102019.09;;;13.24;61.14
49827;BME280;35715;51.570;6.036;2023-06-04T05:05:48;102012.25;;;13.25;61.23
49827;BME280;35715;51.570;6.036;2023-06-04T05:08:13;102012.47;;;13.28;61.29
49827;BME280;35715;51.570;6.036;2023-06-04T05:10:38;102010.91;;;13.30;61.56
49827;BME280;35715;51.570;6.036;2023-06-04T05:13:15;102020.59;;;13.32;61.63
49827;BME280;35715;51.570;6.036;2023-06-04T05:15:41;102013.19;;;13.37;61.43
49827;BME280;35715;51.570;6.036;2023-06-04T05:18:07;102013.53;;;13.42;62.24
49827;BME280;35715;51.570;6.036;2023-06-04T05:20:33;102007.94;;;13.47;61.11
49827;BME280;35715;51.570;6.036;2023-06-04T05:25:51;102010.03;;;13.41;62.50
49827;BME280;35715;51.570;6.036;2023-06-04T05:28:17;102013.66;;;13.43;62.22
49827;BME280;35715;51.570;6.036;2023-06-04T05:30:43;102016.03;;;13.52;62.06
49827;BME280;35715;51.570;6.036;2023-06-04T05:33:13;102011.31;;;13.58;63.33
49827;BME280;35715;51.570;6.036;2023-06-04T05:35:47;102014.34;;;13.64;62.19
49827;BME280;35715;51.570;6.036;2023-06-04T05:38:31;102013.53;;;13.65;62.47
49827;BME280;35715;51.570;6.036;2023-06-04T05:40:56;102020.88;;;13.71;62.37
49827;BME280;35715;51.570;6.036;2023-06-04T05:43:22;102013.56;;;13.77;61.70
49827;BME280;35715;51.570;6.036;2023-06-04T05:45:48;102018.41;;;13.84;62.13
49827;BME280;35715;51.570;6.036;2023-06-04T05:48:15;102019.75;;;13.91;61.75
49827;BME280;35715;51.570;6.036;2023-06-04T05:50:40;102012.19;;;13.94;61.05
49827;BME280;35715;51.570;6.036;2023-06-04T05:53:07;102014.09;;;13.97;60.78
49827;BME280;35715;51.570;6.036;2023-06-04T05:55:32;102021.13;;;13.98;60.41
49827;BME280;35715;51.570;6.036;2023-06-04T05:57:58;102025.97;;;14.05;61.30
49827;BME280;35715;51.570;6.036;2023-06-04T06:00:23;102020.88;;;14.07;60.61
49827;BME280;35715;51.570;6.036;2023-06-04T06:02:50;102019.63;;;14.13;60.50
49827;BME280;35715;51.570;6.036;2023-06-04T06:05:17;102019.06;;;14.17;61.22
49827;BME280;35715;51.570;6.036;2023-06-04T06:07:42;102019.81;;;14.40;60.81
49827;BME280;35715;51.570;6.036;2023-06-04T06:10:08;102017.75;;;14.85;59.68
49827;BME280;35715;51.570;6.036;2023-06-04T06:12:36;102012.59;;;15.37;58.79
49827;BME280;35715;51.570;6.036;2023-06-04T06:15:01;102015.16;;;15.89;57.97
49827;BME280;35715;51.570;6.036;2023-06-04T06:17:26;102021.22;;;16.29;56.58
49827;BME280;35715;51.570;6.036;2023-06-04T06:19:54;102017.09;;;16.75;56.55
49827;BME280;35715;51.570;6.036;2023-06-04T06:22:22;102019.97;;;17.23;53.90
49827;BME280;35715;51.570;6.036;2023-06-04T06:24:47;102020.25;;;17.57;52.55
49827;BME280;35715;51.570;6.036;2023-06-04T06:27:16;102016.50;;;17.83;51.27
49827;BME280;35715;51.570;6.036;2023-06-04T06:30:01;102022.50;;;18.12;49.17
49827;BME280;35715;51.570;6.036;2023-06-04T06:32:46;102028.34;;;18.39;48.69
49827;BME280;35715;51.570;6.036;2023-06-04T06:35:13;102033.84;;;18.60;48.76
49827;BME280;35715;51.570;6.036;2023-06-04T06:37:39;102030.44;;;18.78;48.17
49827;BME280;35715;51.570;6.036;2023-06-04T06:40:22;102035.53;;;18.91;47.33
49827;BME280;35715;51.570;6.036;2023-06-04T06:42:49;102030.34;;;19.26;46.77
49827;BME280;35715;51.570;6.036;2023-06-04T06:45:17;102030.25;;;19.59;46.49
49827;BME280;35715;51.570;6.036;2023-06-04T06:47:43;102029.63;;;19.81;44.88
49827;BME280;35715;51.570;6.036;2023-06-04T06:50:08;102036.09;;;20.07;44.96
49827;BME280;35715;51.570;6.036;2023-06-04T06:52:34;102032.47;;;20.41;43.82
49827;BME280;35715;51.570;6.036;2023-06-04T06:54:59;102030.47;;;20.73;43.83
49827;BME280;35715;51.570;6.036;2023-06-04T06:57:25;102030.19;;;20.86;42.46
49827;BME280;35715;51.570;6.036;2023-06-04T06:59:50;102031.47;;;21.16;42.95
49827;BME280;35715;51.570;6.036;2023-06-04T07:02:17;102034.56;;;21.48;41.85
49827;BME280;35715;51.570;6.036;2023-06-04T07:04:42;102037.84;;;21.84;42.30
49827;BME280;35715;51.570;6.036;2023-06-04T07:07:07;102047.63;;;22.09;41.00
49827;BME280;35715;51.570;6.036;2023-06-04T07:09:33;102041.59;;;22.35;40.18
49827;BME280;35715;51.570;6.036;2023-06-04T07:11:59;102043.69;;;22.43;38.83
49827;BME280;35715;51.570;6.036;2023-06-04T07:14:25;102044.97;;;22.77;38.95
49827;BME280;35715;51.570;6.036;2023-06-04T07:16:50;102050.38;;;23.06;38.58
49827;BME280;35715;51.570;6.036;2023-06-04T07:19:16;102039.06;;;23.09;38.30
49827;BME280;35715;51.570;6.036;2023-06-04T07:21:41;102043.47;;;23.60;38.23
49827;BME280;35715;51.570;6.036;2023-06-04T07:24:07;102039.41;;;23.97;36.33
49827;BME280;35715;51.570;6.036;2023-06-04T07:26:33;102042.19;;;24.29;36.08
49827;BME280;35715;51.570;6.036;2023-06-04T07:28:58;102044.75;;;24.56;35.96
49827;BME280;35715;51.570;6.036;2023-06-04T07:31:23;102049.09;;;24.84;35.65
49827;BME280;35715;51.570;6.036;2023-06-04T07:33:54;102044.34;;;25.03;34.51
49827;BME280;35715;51.570;6.036;2023-06-04T07:36:19;102032.34;;;25.15;33.86
49827;BME280;35715;51.570;6.036;2023-06-04T07:38:45;102035.03;;;25.50;33.77
49827;BME280;35715;51.570;6.036;2023-06-04T07:41:11;102045.53;;;25.84;33.59
49827;BME280;35715;51.570;6.036;2023-06-04T07:43:42;102045.22;;;26.07;32.84
49827;BME280;35715;51.570;6.036;2023-06-04T07:46:08;102047.25;;;26.18;33.35
49827;BME280;35715;51.570;6.036;2023-06-04T07:48:34;102038.78;;;26.35;33.07
49827;BME280;35715;51.570;6.036;2023-06-04T07:51:01;102044.31;;;26.46;32.88
49827;BME280;35715;51.570;6.036;2023-06-04T07:53:37;102045.44;;;26.59;30.95
49827;BME280;35715;51.570;6.036;2023-06-04T07:56:03;102045.22;;;26.89;33.21
49827;BME280;35715;51.570;6.036;2023-06-04T07:58:47;102040.22;;;27.04;30.74
49827;BME280;35715;51.570;6.036;2023-06-04T08:01:13;102046.22;;;27.43;31.95
49827;BME280;35715;51.570;6.036;2023-06-04T08:03:47;102045.91;;;27.79;31.16
49827;BME280;35715;51.570;6.036;2023-06-04T08:06:12;102049.63;;;27.89;29.37
49827;BME280;35715;51.570;6.036;2023-06-04T08:08:45;102048.25;;;27.58;29.71
49827;BME280;35715;51.570;6.036;2023-06-04T08:11:11;102044.06;;;27.72;30.20
49827;BME280;35715;51.570;6.036;2023-06-04T08:13:42;102045.31;;;27.96;29.09
49827;BME280;35715;51.570;6.036;2023-06-04T08:16:08;102043.09;;;28.24;28.91
49827;BME280;35715;51.570;6.036;2023-06-04T08:18:38;102044.47;;;28.63;29.65
49827;BME280;35715;51.570;6.036;2023-06-04T08:21:03;102044.69;;;28.78;28.13
49827;BME280;35715;51.570;6.036;2023-06-04T08:23:30;102041.22;;;28.89;28.55
49827;BME280;35715;51.570;6.036;2023-06-04T08:25:55;102041.47;;;29.10;28.03
49827;BME280;35715;51.570;6.036;2023-06-04T08:28:21;102037.19;;;29.25;28.08
49827;BME280;35715;51.570;6.036;2023-06-04T08:30:46;102046.09;;;29.27;28.76
49827;BME280;35715;51.570;6.036;2023-06-04T08:33:15;102041.78;;;29.44;28.25
49827;BME280;35715;51.570;6.036;2023-06-04T08:35:40;102048.16;;;29.62;27.58
49827;BME280;35715;51.570;6.036;2023-06-04T08:38:06;102052.78;;;29.84;26.78
49827;BME280;35715;51.570;6.036;2023-06-04T08:40:31;102053.72;;;29.93;26.55
49827;BME280;35715;51.570;6.036;2023-06-04T08:43:05;102053.69;;;29.86;25.88
49827;BME280;35715;51.570;6.036;2023-06-04T08:45:33;102052.88;;;30.00;26.79
49827;BME280;35715;51.570;6.036;2023-06-04T08:48:05;102043.31;;;30.34;25.96
49827;BME280;35715;51.570;6.036;2023-06-04T08:50:33;102051.50;;;30.79;25.46
49827;BME280;35715;51.570;6.036;2023-06-04T08:55:52;102053.38;;;31.08;23.98
49827;BME280;35715;51.570;6.036;2023-06-04T08:58:19;102048.03;;;31.28;24.64
49827;BME280;35715;51.570;6.036;2023-06-04T09:00:45;102048.94;;;31.48;23.68
49827;BME280;35715;51.570;6.036;2023-06-04T09:03:11;102054.31;;;31.67;23.28
49827;BME280;35715;51.570;6.036;2023-06-04T09:05:39;102048.94;;;31.81;22.71
49827;BME280;35715;51.570;6.036;2023-06-04T09:08:06;102048.03;;;31.25;23.54
49827;BME280;35715;51.570;6.036;2023-06-04T09:10:35;102056.97;;;31.35;24.04
49827;BME280;35715;51.570;6.036;2023-06-04T09:13:06;102054.28;;;31.24;22.73
49827;BME280;35715;51.570;6.036;2023-06-04T09:15:32;102050.72;;;31.23;23.23
49827;BME280;35715;51.570;6.036;2023-06-04T09:17:57;102046.28;;;31.65;22.62
49827;BME280;35715;51.570;6.036;2023-06-04T09:20:24;102047.13;;;32.00;22.50
49827;BME280;35715;51.570;6.036;2023-06-04T09:22:54;102052.44;;;32.22;21.30
49827;BME280;35715;51.570;6.036;2023-06-04T09:25:24;102049.78;;;32.09;21.38
49827;BME280;35715;51.570;6.036;2023-06-04T09:27:58;102053.34;;;32.24;21.40
49827;BME280;35715;51.570;6.036;2023-06-04T09:30:30;102055.84;;;32.68;21.17
49827;BME280;35715;51.570;6.036;2023-06-04T09:33:09;102061.06;;;32.95;20.87
49827;BME280;35715;51.570;6.036;2023-06-04T09:35:35;102058.38;;;32.95;20.78
49827;BME280;35715;51.570;6.036;2023-06-04T09:38:00;102065.44;;;33.02;21.37
49827;BME280;35715;51.570;6.036;2023-06-04T09:40:35;102052.88;;;33.21;19.60
49827;BME280;35715;51.570;6.036;2023-06-04T09:43:27;102053.75;;;33.20;20.50
49827;BME280;35715;51.570;6.036;2023-06-04T09:45:52;102049.84;;;33.59;19.44
49827;BME280;35715;51.570;6.036;2023-06-04T09:48:21;102054.53;;;33.36;20.34
49827;BME280;35715;51.570;6.036;2023-06-04T09:50:47;102043.75;;;33.47;20.56
49827;BME280;35715;51.570;6.036;2023-06-04T09:53:18;102054.97;;;32.57;19.23
49827;BME280;35715;51.570;6.036;2023-06-04T09:55:56;102056.94;;;31.99;19.31
49827;BME280;35715;51.570;6.036;2023-06-04T09:58:23;102052.47;;;32.15;20.83
49827;BME280;35715;51.570;6.036;2023-06-04T10:00:49;102043.34;;;32.63;20.72
49827;BME280;35715;51.570;6.036;2023-06-04T10:03:38;102052.25;;;32.72;20.64
49827;BME280;35715;51.570;6.036;2023-06-04T10:06:06;102047.19;;;31.83;20.66
49827;BME280;35715;51.570;6.036;2023-06-04T10:08:32;102042.72;;;31.76;21.34
49827;BME280;35715;51.570;6.036;2023-06-04T10:11:00;102030.25;;;31.84;21.89
49827;BME280;35715;51.570;6.036;2023-06-04T10:14:00;102049.81;;;31.27;22.29
49827;BME280;35715;51.570;6.036;2023-06-04T10:16:28;102047.16;;;31.32;21.39
49827;BME280;35715;51.570;6.036;2023-06-04T10:18:55;102042.72;;;31.32;21.78
49827;BME280;35715;51.570;6.036;2023-06-04T10:21:22;102048.03;;;31.29;21.46
49827;BME280;35715;51.570;6.036;2023-06-04T10:23:50;102051.66;;;31.55;22.70
49827;BME280;35715;51.570;6.036;2023-06-04T10:26:16;102044.50;;;31.30;21.55
49827;BME280;35715;51.570;6.036;2023-06-04T10:28:42;102039.97;;;30.95;21.26
49827;BME280;35715;51.570;6.036;2023-06-04T10:31:11;102046.22;;;30.99;21.65
49827;BME280;35715;51.570;6.036;2023-06-04T10:33:41;102039.13;;;30.98;21.36
49827;BME280;35715;51.570;6.036;2023-06-04T10:36:25;102036.38;;;30.73;21.76
49827;BME280;35715;51.570;6.036;2023-06-04T10:38:55;102039.97;;;30.82;22.63
49827;BME280;35715;51.570;6.036;2023-06-04T10:41:22;102045.25;;;30.63;22.00
49827;BME280;35715;51.570;6.036;2023-06-04T10:44:00;102038.16;;;30.76;22.41
49827;BME280;35715;51.570;6.036;2023-06-04T10:46:25;102042.63;;;30.77;22.81
49827;BME280;35715;51.570;6.036;2023-06-04T10:48:52;102041.72;;;30.81;22.53
49827;BME280;35715;51.570;6.036;2023-06-04T10:51:33;102046.19;;;30.91;23.14
49827;BME280;35715;51.570;6.036;2023-06-04T10:54:02;102038.19;;;30.90;23.05
49827;BME280;35715;51.570;6.036;2023-06-04T10:56:46;102028.38;;;30.81;23.09
49827;BME280;35715;51.570;6.036;2023-06-04T10:59:16;102038.06;;;30.48;23.01
49827;BME280;35715;51.570;6.036;2023-06-04T11:01:42;102039.56;;;29.98;22.28
49827;BME280;35715;51.570;6.036;2023-06-04T11:04:22;102037.19;;;29.26;23.86
49827;BME280;35715;51.570;6.036;2023-06-04T11:07:07;102034.31;;;29.06;23.10
49827;BME280;35715;51.570;6.036;2023-06-04T11:09:37;102037.44;;;28.65;23.24
49827;BME280;35715;51.570;6.036;2023-06-04T11:12:05;102031.44;;;28.15;23.76
49827;BME280;35715;51.570;6.036;2023-06-04T11:14:30;102033.06;;;28.03;24.60
49827;BME280;35715;51.570;6.036;2023-06-04T11:16:57;102031.44;;;28.15;25.21
49827;BME280;35715;51.570;6.036;2023-06-04T11:19:22;102029.50;;;28.04;24.63
49827;BME280;35715;51.570;6.036;2023-06-04T11:21:49;102020.19;;;27.72;25.20
49827;BME280;35715;51.570;6.036;2023-06-04T11:24:16;102023.13;;;27.37;24.29
49827;BME280;35715;51.570;6.036;2023-06-04T11:26:41;102021.84;;;27.14;25.00
49827;BME280;35715;51.570;6.036;2023-06-04T11:29:09;102017.56;;;27.23;25.14
49827;BME280;35715;51.570;6.036;2023-06-04T11:31:44;102023.91;;;27.32;25.22
49827;BME280;35715;51.570;6.036;2023-06-04T11:34:28;102015.84;;;27.24;25.52
49827;BME280;35715;51.570;6.036;2023-06-04T11:36:54;102017.53;;;27.22;27.54
49827;BME280;35715;51.570;6.036;2023-06-04T11:39:20;102019.31;;;27.21;28.00
49827;BME280;35715;51.570;6.036;2023-06-04T11:41:46;102011.16;;;27.09;26.96
49827;BME280;35715;51.570;6.036;2023-06-04T11:44:12;102015.50;;;27.07;26.14
49827;BME280;35715;51.570;6.036;2023-06-04T11:46:42;102009.56;;;27.20;25.36
49827;BME280;35715;51.570;6.036;2023-06-04T11:49:17;102013.25;;;27.29;25.06
49827;BME280;35715;51.570;6.036;2023-06-04T11:51:52;102010.53;;;27.24;25.97
49827;BME280;35715;51.570;6.036;2023-06-04T11:54:21;102012.03;;;27.09;26.10
49827;BME280;35715;51.570;6.036;2023-06-04T11:56:51;102013.75;;;26.62;25.97
49827;BME280;35715;51.570;6.036;2023-06-04T11:59:17;102014.59;;;26.59;26.07
49827;BME280;35715;51.570;6.036;2023-06-04T12:02:08;102007.09;;;26.81;27.25
49827;BME280;35715;51.570;6.036;2023-06-04T12:04:52;102012.13;;;26.67;25.95
49827;BME280;35715;51.570;6.036;2023-06-04T12:07:21;102012.78;;;26.58;26.90
49827;BME280;35715;51.570;6.036;2023-06-04T12:09:49;101996.09;;;26.61;26.12
49827;BME280;35715;51.570;6.036;2023-06-04T12:12:28;102006.81;;;26.67;26.99
49827;BME280;35715;51.570;6.036;2023-06-04T12:14:59;101995.44;;;26.71;26.71
49827;BME280;35715;51.570;6.036;2023-06-04T12:17:26;102004.69;;;26.50;26.84
49827;BME280;35715;51.570;6.036;2023-06-04T12:19:52;102005.38;;;26.40;27.22
49827;BME280;35715;51.570;6.036;2023-06-04T12:22:18;102000.16;;;26.45;27.27
49827;BME280;35715;51.570;6.036;2023-06-04T12:24:50;101998.41;;;26.44;26.67
49827;BME280;35715;51.570;6.036;2023-06-04T12:27:20;101998.50;;;26.48;26.72
49827;BME280;35715;51.570;6.036;2023-06-04T12:29:56;101996.81;;;26.53;27.04
49827;BME280;35715;51.570;6.036;2023-06-04T12:32:24;101990.88;;;26.65;27.39
49827;BME280;35715;51.570;6.036;2023-06-04T12:34:49;101986.31;;;26.58;26.82
49827;BME280;35715;51.570;6.036;2023-06-04T12:37:15;101988.59;;;26.39;26.71
49827;BME280;35715;51.570;6.036;2023-06-04T12:39:40;101985.09;;;26.41;27.01
49827;BME280;35715;51.570;6.036;2023-06-04T12:42:08;101989.69;;;26.51;26.79
49827;BME280;35715;51.570;6.036;2023-06-04T12:44:38;101988.31;;;26.68;26.39
49827;BME280;35715;51.570;6.036;2023-06-04T12:47:04;101984.22;;;26.86;28.90
49827;BME280;35715;51.570;6.036;2023-06-04T12:49:30;101978.94;;;26.86;26.49
49827;BME280;35715;51.570;6.036;2023-06-04T12:51:55;101981.31;;;26.72;26.95
49827;BME280;35715;51.570;6.036;2023-06-04T12:54:21;101986.94;;;26.45;27.51
49827;BME280;35715;51.570;6.036;2023-06-04T12:56:46;101986.91;;;26.43;26.56
49827;BME280;35715;51.570;6.036;2023-06-04T12:59:12;101981.69;;;26.48;27.78
49827;BME280;35715;51.570;6.036;2023-06-04T13:01:37;101979.00;;;26.46;26.92
49827;BME280;35715;51.570;6.036;2023-06-04T13:04:10;101991.47;;;26.50;27.46
49827;BME280;35715;51.570;6.036;2023-06-04T13:06:35;101983.28;;;26.38;27.30
49827;BME280;35715;51.570;6.036;2023-06-04T13:09:02;101981.25;;;26.26;26.63
49827;BME280;35715;51.570;6.036;2023-06-04T13:11:29;101984.50;;;26.13;27.44
49827;BME280;35715;51.570;6.036;2023-06-04T13:13:54;101982.94;;;26.21;26.71
49827;BME280;35715;51.570;6.036;2023-06-04T13:16:19;101983.28;;;26.38;28.15
49827;BME280;35715;51.570;6.036;2023-06-04T13:18:45;101981.97;;;26.19;26.57